createdAt,value
2019-03-16T00:00:21.649Z,993.60
2019-03-16T00:01:21.614Z,993.74
2019-03-16T00:02:21.604Z,993.68
2019-03-16T00:03:21.609Z,993.71
2019-03-16T00:04:21.578Z,993.65
2019-03-16T00:05:21.587Z,993.69
2019-03-16T00:06:21.587Z,993.76
2019-03-16T00:07:32.573Z,993.84
2019-03-16T00:08:22.534Z,993.76
2019-03-16T00:09:21.525Z,993.81
2019-03-16T00:10:21.532Z,993.79
2019-03-16T00:11:21.508Z,993.86
2019-03-16T00:12:21.489Z,993.90
2019-03-16T00:13:21.513Z,993.98
2019-03-16T00:14:21.466Z,993.91
2019-03-16T00:15:21.482Z,994.11
2019-03-16T00:16:21.445Z,993.90
2019-03-16T00:17:23.748Z,993.81
2019-03-16T00:18:21.430Z,993.88
2019-03-16T00:19:21.415Z,993.89
2019-03-16T00:20:21.426Z,993.95
2019-03-16T00:21:21.398Z,993.97
2019-03-16T00:22:21.406Z,994.02
2019-03-16T00:23:21.371Z,993.89
2019-03-16T00:24:21.355Z,994.00
2019-03-16T00:25:21.367Z,994.09
2019-03-16T00:26:21.342Z,994.06
2019-03-16T00:27:21.325Z,994.15
2019-03-16T00:28:21.316Z,994.09
2019-03-16T00:29:21.617Z,994.16
2019-03-16T00:30:21.302Z,994.06
2019-03-16T00:31:21.287Z,994.11
2019-03-16T00:32:21.267Z,994.27
2019-03-16T00:33:21.259Z,994.19
2019-03-16T00:34:21.247Z,994.17
2019-03-16T00:35:21.260Z,994.26
2019-03-16T00:36:21.228Z,994.34
2019-03-16T00:37:21.212Z,994.35
2019-03-16T00:38:23.463Z,994.30
2019-03-16T00:39:21.193Z,994.47
2019-03-16T00:40:21.200Z,994.31
2019-03-16T00:41:21.169Z,994.42
2019-03-16T00:42:21.156Z,994.36
2019-03-16T00:43:21.146Z,994.44
2019-03-16T00:44:21.133Z,994.34
2019-03-16T00:45:21.145Z,994.45
2019-03-16T00:46:21.113Z,994.32
2019-03-16T00:47:21.122Z,994.37
2019-03-16T00:48:21.097Z,994.47
2019-03-16T00:49:21.077Z,994.45
2019-03-16T00:50:21.098Z,994.33
2019-03-16T00:51:21.098Z,994.46
2019-03-16T00:52:21.042Z,994.48
2019-03-16T00:53:21.031Z,994.37
2019-03-16T00:54:21.025Z,994.47
2019-03-16T00:55:21.027Z,994.49
2019-03-16T00:56:21.004Z,994.57
2019-03-16T00:57:20.987Z,994.47
2019-03-16T00:58:20.972Z,994.53
2019-03-16T00:59:20.974Z,994.46
2019-03-16T01:00:20.968Z,994.39
2019-03-16T01:01:20.947Z,994.44
2019-03-16T01:02:27.017Z,994.54
2019-03-16T01:03:22.026Z,994.51
2019-03-16T01:04:20.907Z,994.49
2019-03-16T01:05:20.927Z,994.52
2019-03-16T01:06:20.885Z,994.54
2019-03-16T01:07:20.876Z,994.52
2019-03-16T01:08:20.866Z,994.65
2019-03-16T01:09:20.853Z,994.54
2019-03-16T01:10:20.861Z,994.64
2019-03-16T01:11:20.828Z,994.67
2019-03-16T01:12:20.819Z,994.66
2019-03-16T01:13:20.821Z,994.68
2019-03-16T01:14:20.799Z,994.83
2019-03-16T01:15:20.795Z,994.65
2019-03-16T01:16:20.770Z,994.73
2019-03-16T01:17:20.758Z,994.73
2019-03-16T01:18:20.751Z,994.74
2019-03-16T01:19:20.740Z,994.81
2019-03-16T01:20:20.747Z,994.75
2019-03-16T01:21:20.714Z,994.85
2019-03-16T01:22:20.705Z,994.85
2019-03-16T01:23:20.705Z,994.93
2019-03-16T01:24:20.680Z,994.87
2019-03-16T01:25:20.706Z,994.95
2019-03-16T01:26:20.653Z,994.85
2019-03-16T01:27:20.698Z,994.94
2019-03-16T01:28:20.634Z,994.86
2019-03-16T01:29:20.623Z,994.84
2019-03-16T01:30:20.611Z,994.98
2019-03-16T01:31:20.627Z,994.95
2019-03-16T01:32:20.587Z,994.90
2019-03-16T01:33:20.573Z,994.87
2019-03-16T01:34:20.572Z,994.85
2019-03-16T01:35:20.556Z,994.90
2019-03-16T01:36:20.575Z,994.96
2019-03-16T01:37:20.532Z,994.96
2019-03-16T01:38:20.521Z,994.96
2019-03-16T01:39:20.509Z,994.91
2019-03-16T01:40:20.505Z,995.05
2019-03-16T01:41:20.527Z,995.01
2019-03-16T01:42:20.484Z,995.03
2019-03-16T01:43:20.467Z,995.12
2019-03-16T01:44:20.458Z,995.15
2019-03-16T01:45:20.440Z,995.18
2019-03-16T01:46:20.448Z,995.08
2019-03-16T01:47:20.428Z,995.11
2019-03-16T01:48:20.408Z,995.14
2019-03-16T01:49:20.416Z,995.22
2019-03-16T01:50:21.761Z,995.14
2019-03-16T01:51:20.397Z,995.16
2019-03-16T01:52:20.367Z,995.24
2019-03-16T01:53:20.374Z,995.08
2019-03-16T01:54:20.345Z,995.08
2019-03-16T01:55:20.327Z,995.06
2019-03-16T01:56:20.339Z,995.27
2019-03-16T01:57:20.635Z,995.23
2019-03-16T01:58:20.286Z,995.30
2019-03-16T01:59:20.278Z,995.32
2019-03-16T02:00:20.266Z,995.28
2019-03-16T02:01:20.270Z,995.16
2019-03-16T02:02:20.250Z,995.23
2019-03-16T02:03:20.240Z,995.23
2019-03-16T02:04:20.225Z,995.22
2019-03-16T02:05:20.211Z,995.27
2019-03-16T02:06:20.221Z,995.25
2019-03-16T02:07:20.198Z,995.28
2019-03-16T02:08:20.176Z,995.27
2019-03-16T02:09:20.174Z,995.33
2019-03-16T02:10:20.158Z,995.28
2019-03-16T02:11:20.168Z,995.28
2019-03-16T02:12:20.136Z,995.28
2019-03-16T02:13:20.126Z,995.47
2019-03-16T02:14:20.116Z,995.32
2019-03-16T02:15:20.104Z,995.29
2019-03-16T02:16:20.111Z,995.31
2019-03-16T02:17:20.076Z,995.32
2019-03-16T02:18:20.068Z,995.26
2019-03-16T02:19:20.060Z,995.34
2019-03-16T02:20:20.047Z,995.37
2019-03-16T02:21:20.058Z,995.29
2019-03-16T02:22:20.018Z,995.41
2019-03-16T02:23:20.010Z,995.48
2019-03-16T02:24:20.003Z,995.55
2019-03-16T02:25:19.994Z,995.45
2019-03-16T02:26:20.050Z,995.52
2019-03-16T02:27:19.964Z,995.54
2019-03-16T02:28:19.954Z,995.54
2019-03-16T02:29:19.944Z,995.52
2019-03-16T02:30:19.936Z,995.58
2019-03-16T02:31:19.940Z,995.55
2019-03-16T02:32:19.908Z,995.64
2019-03-16T02:33:19.907Z,995.67
2019-03-16T02:34:19.888Z,995.58
2019-03-16T02:35:19.889Z,995.65
2019-03-16T02:36:19.890Z,995.71
2019-03-16T02:37:19.854Z,995.70
2019-03-16T02:38:19.839Z,995.80
2019-03-16T02:39:19.835Z,995.93
2019-03-16T02:40:19.820Z,995.83
2019-03-16T02:41:19.828Z,995.85
2019-03-16T02:42:19.798Z,995.97
2019-03-16T02:43:19.792Z,995.86
2019-03-16T02:44:19.780Z,995.87
2019-03-16T02:45:19.766Z,995.87
2019-03-16T02:46:19.773Z,995.90
2019-03-16T02:47:19.744Z,995.93
2019-03-16T02:48:19.727Z,996.03
2019-03-16T02:49:19.899Z,996.08
2019-03-16T02:50:19.713Z,996.02
2019-03-16T02:51:19.719Z,996.06
2019-03-16T02:52:19.683Z,996.10
2019-03-16T02:53:19.683Z,996.12
2019-03-16T02:54:19.663Z,996.15
2019-03-16T02:55:19.649Z,996.02
2019-03-16T02:56:19.656Z,996.05
2019-03-16T02:57:19.641Z,996.13
2019-03-16T02:58:19.610Z,996.18
2019-03-16T02:59:19.604Z,996.09
2019-03-16T03:00:19.610Z,996.15
2019-03-16T03:01:19.608Z,996.19
2019-03-16T03:02:19.616Z,996.17
2019-03-16T03:03:29.124Z,996.16
2019-03-16T03:04:20.567Z,996.23
2019-03-16T03:05:19.561Z,996.20
2019-03-16T03:06:19.544Z,996.18
2019-03-16T03:07:19.511Z,996.24
2019-03-16T03:08:19.510Z,996.22
2019-03-16T03:09:19.493Z,996.23
2019-03-16T03:10:19.481Z,996.24
2019-03-16T03:11:19.493Z,996.16
2019-03-16T03:12:19.462Z,996.24
2019-03-16T03:13:19.450Z,996.25
2019-03-16T03:14:19.445Z,996.22
2019-03-16T03:15:19.429Z,996.23
2019-03-16T03:16:19.432Z,996.27
2019-03-16T03:17:19.404Z,996.33
2019-03-16T03:18:19.397Z,996.30
2019-03-16T03:19:19.494Z,996.32
2019-03-16T03:20:19.373Z,996.37
2019-03-16T03:21:19.392Z,996.43
2019-03-16T03:22:19.357Z,996.51
2019-03-16T03:23:19.335Z,996.49
2019-03-16T03:24:19.349Z,996.36
2019-03-16T03:25:19.318Z,996.45
2019-03-16T03:26:19.324Z,996.46
2019-03-16T03:27:19.296Z,996.50
2019-03-16T03:28:19.277Z,996.40
2019-03-16T03:29:19.266Z,996.50
2019-03-16T03:30:19.257Z,996.50
2019-03-16T03:31:19.278Z,996.41
2019-03-16T03:32:19.241Z,996.59
2019-03-16T03:33:19.238Z,996.54
2019-03-16T03:34:19.217Z,996.58
2019-03-16T03:35:19.213Z,996.57
2019-03-16T03:36:19.208Z,996.56
2019-03-16T03:37:19.186Z,996.61
2019-03-16T03:38:19.162Z,996.53
2019-03-16T03:39:19.156Z,996.56
2019-03-16T03:40:19.147Z,996.62
2019-03-16T03:41:19.170Z,996.54
2019-03-16T03:42:19.124Z,996.65
2019-03-16T03:43:19.110Z,996.66
2019-03-16T03:44:19.096Z,996.71
2019-03-16T03:45:19.085Z,996.77
2019-03-16T03:46:19.111Z,996.68
2019-03-16T03:47:19.077Z,996.78
2019-03-16T03:48:19.055Z,996.74
2019-03-16T03:49:19.091Z,996.72
2019-03-16T03:50:19.034Z,996.81
2019-03-16T03:51:19.024Z,996.82
2019-03-16T03:52:19.021Z,996.77
2019-03-16T03:53:18.998Z,996.87
2019-03-16T03:54:19.005Z,996.84
2019-03-16T03:55:18.970Z,996.84
2019-03-16T03:56:18.959Z,996.91
2019-03-16T03:57:18.986Z,996.88
2019-03-16T03:58:18.942Z,996.91
2019-03-16T03:59:18.941Z,996.89
2019-03-16T04:00:18.923Z,996.94
2019-03-16T04:01:18.905Z,996.97
2019-03-16T04:02:18.915Z,997.01
2019-03-16T04:03:18.880Z,997.00
2019-03-16T04:04:18.875Z,997.04
2019-03-16T04:05:18.864Z,997.06
2019-03-16T04:06:18.845Z,997.22
2019-03-16T04:07:20.367Z,997.08
2019-03-16T04:08:18.825Z,997.10
2019-03-16T04:09:18.818Z,997.12
2019-03-16T04:10:18.807Z,997.10
2019-03-16T04:11:18.792Z,997.13
2019-03-16T04:12:18.800Z,997.16
2019-03-16T04:13:18.774Z,997.13
2019-03-16T04:14:18.763Z,997.18
2019-03-16T04:15:18.755Z,997.18
2019-03-16T04:16:18.742Z,997.20
2019-03-16T04:17:18.740Z,997.30
2019-03-16T04:18:18.718Z,997.28
2019-03-16T04:19:18.984Z,997.32
2019-03-16T04:20:18.698Z,997.35
2019-03-16T04:21:18.695Z,997.51
2019-03-16T04:22:18.689Z,997.41
2019-03-16T04:23:18.656Z,997.42
2019-03-16T04:24:18.643Z,997.44
2019-03-16T04:25:18.635Z,997.47
2019-03-16T04:26:18.624Z,997.54
2019-03-16T04:27:18.626Z,997.54
2019-03-16T04:28:18.598Z,997.56
2019-03-16T04:29:18.592Z,997.59
2019-03-16T04:30:18.581Z,997.60
2019-03-16T04:31:18.571Z,997.57
2019-03-16T04:32:18.578Z,997.56
2019-03-16T04:33:18.543Z,997.61
2019-03-16T04:34:28.430Z,997.60
2019-03-16T04:35:19.533Z,997.58
2019-03-16T04:36:18.510Z,997.58
2019-03-16T04:37:18.512Z,997.63
2019-03-16T04:38:18.486Z,997.69
2019-03-16T04:39:18.478Z,997.55
2019-03-16T04:40:18.470Z,997.59
2019-03-16T04:41:18.455Z,997.60
2019-03-16T04:42:18.452Z,997.56
2019-03-16T04:43:18.431Z,997.64
2019-03-16T04:44:18.424Z,997.65
2019-03-16T04:45:18.406Z,997.62
2019-03-16T04:46:18.403Z,997.63
2019-03-16T04:47:18.399Z,997.72
2019-03-16T04:48:18.371Z,997.67
2019-03-16T04:49:18.560Z,997.66
2019-03-16T04:50:18.355Z,997.70
2019-03-16T04:51:18.338Z,997.72
2019-03-16T04:52:18.352Z,997.82
2019-03-16T04:53:18.316Z,997.76
2019-03-16T04:54:18.301Z,997.70
2019-03-16T04:55:18.297Z,997.77
2019-03-16T04:56:18.282Z,997.72
2019-03-16T04:57:18.301Z,997.81
2019-03-16T04:58:18.258Z,997.78
2019-03-16T04:59:18.258Z,997.74
2019-03-16T05:00:18.231Z,997.78
2019-03-16T05:01:18.222Z,997.87
2019-03-16T05:02:18.231Z,997.82
2019-03-16T05:03:18.202Z,997.91
2019-03-16T05:04:18.194Z,997.82
2019-03-16T05:05:18.184Z,997.89
2019-03-16T05:06:18.171Z,997.89
2019-03-16T05:07:18.189Z,997.92
2019-03-16T05:08:18.144Z,997.88
2019-03-16T05:09:18.136Z,997.91
2019-03-16T05:10:18.126Z,997.88
2019-03-16T05:11:18.110Z,997.87
2019-03-16T05:12:18.109Z,997.94
2019-03-16T05:13:18.110Z,997.84
2019-03-16T05:14:18.077Z,997.87
2019-03-16T05:15:18.072Z,997.92
2019-03-16T05:16:18.062Z,997.87
2019-03-16T05:17:18.045Z,997.91
2019-03-16T05:18:18.053Z,997.83
2019-03-16T05:19:18.027Z,997.89
2019-03-16T05:20:18.010Z,998.01
2019-03-16T05:21:17.998Z,997.94
2019-03-16T05:22:17.987Z,997.91
2019-03-16T05:23:18.009Z,997.87
2019-03-16T05:24:17.970Z,997.91
2019-03-16T05:25:17.966Z,997.97
2019-03-16T05:26:17.953Z,998.05
2019-03-16T05:27:17.927Z,997.92
2019-03-16T05:28:18.014Z,998.04
2019-03-16T05:29:17.906Z,998.02
2019-03-16T05:30:17.902Z,998.11
2019-03-16T05:31:17.887Z,998.15
2019-03-16T05:32:17.875Z,998.15
2019-03-16T05:33:17.897Z,998.11
2019-03-16T05:34:17.865Z,998.15
2019-03-16T05:35:17.843Z,998.17
2019-03-16T05:36:17.842Z,998.26
2019-03-16T05:37:17.827Z,998.31
2019-03-16T05:38:17.823Z,998.18
2019-03-16T05:39:17.796Z,998.21
2019-03-16T05:40:17.785Z,998.19
2019-03-16T05:41:17.773Z,998.23
2019-03-16T05:42:17.759Z,998.31
2019-03-16T05:43:17.770Z,998.26
2019-03-16T05:44:17.741Z,998.24
2019-03-16T05:45:17.732Z,998.28
2019-03-16T05:46:17.726Z,998.38
2019-03-16T05:47:17.703Z,998.40
2019-03-16T05:48:17.724Z,998.45
2019-03-16T05:49:17.685Z,998.51
2019-03-16T05:50:17.667Z,998.52
2019-03-16T05:51:17.659Z,998.50
2019-03-16T05:52:17.654Z,998.47
2019-03-16T05:53:17.658Z,998.56
2019-03-16T05:54:17.628Z,998.53
2019-03-16T05:55:17.614Z,998.55
2019-03-16T05:56:17.607Z,998.50
2019-03-16T05:57:17.589Z,998.49
2019-03-16T05:58:17.643Z,998.54
2019-03-16T05:59:17.569Z,998.57
2019-03-16T06:00:17.563Z,998.61
2019-03-16T06:01:17.549Z,998.62
2019-03-16T06:02:17.534Z,998.61
2019-03-16T06:03:17.541Z,998.65
2019-03-16T06:04:17.509Z,998.67
2019-03-16T06:05:17.502Z,998.67
2019-03-16T06:06:17.492Z,998.66
2019-03-16T06:07:17.481Z,998.64
2019-03-16T06:08:17.484Z,998.72
2019-03-16T06:09:17.458Z,998.74
2019-03-16T06:10:17.455Z,998.74
2019-03-16T06:11:17.432Z,998.76
2019-03-16T06:12:17.431Z,998.75
2019-03-16T06:13:17.433Z,998.86
2019-03-16T06:14:17.405Z,998.88
2019-03-16T06:15:17.392Z,998.84
2019-03-16T06:16:17.380Z,998.77
2019-03-16T06:17:17.384Z,998.82
2019-03-16T06:18:17.382Z,998.87
2019-03-16T06:19:17.347Z,998.82
2019-03-16T06:20:17.332Z,998.87
2019-03-16T06:21:17.321Z,998.92
2019-03-16T06:22:17.308Z,998.94
2019-03-16T06:23:17.340Z,999.02
2019-03-16T06:24:17.298Z,999.00
2019-03-16T06:25:17.279Z,998.92
2019-03-16T06:26:17.262Z,998.93
2019-03-16T06:27:17.260Z,998.93
2019-03-16T06:28:17.253Z,998.96
2019-03-16T06:29:17.245Z,998.96
2019-03-16T06:30:20.579Z,999.03
2019-03-16T06:31:17.214Z,999.07
2019-03-16T06:32:17.214Z,999.08
2019-03-16T06:33:17.244Z,999.09
2019-03-16T06:34:17.175Z,999.12
2019-03-16T06:35:24.313Z,999.09
2019-03-16T06:36:18.156Z,999.09
2019-03-16T06:37:17.189Z,999.12
2019-03-16T06:38:17.128Z,999.16
2019-03-16T06:39:17.139Z,999.14
2019-03-16T06:40:17.115Z,999.12
2019-03-16T06:41:17.093Z,999.16
2019-03-16T06:42:17.081Z,999.18
2019-03-16T06:43:17.078Z,999.12
2019-03-16T06:44:17.137Z,999.22
2019-03-16T06:45:17.054Z,999.29
2019-03-16T06:46:17.040Z,999.23
2019-03-16T06:47:17.028Z,999.31
2019-03-16T06:48:17.019Z,999.29
2019-03-16T06:49:17.035Z,999.24
2019-03-16T06:50:16.999Z,999.23
2019-03-16T06:51:17.302Z,999.24
2019-03-16T06:52:16.964Z,999.30
2019-03-16T06:53:19.540Z,999.34
2019-03-16T06:54:16.981Z,999.32
2019-03-16T06:55:16.934Z,999.40
2019-03-16T06:56:16.926Z,999.31
2019-03-16T06:57:16.908Z,999.27
2019-03-16T06:58:16.925Z,999.34
2019-03-16T06:59:17.216Z,999.38
2019-03-16T07:00:16.880Z,999.38
2019-03-16T07:01:16.907Z,999.31
2019-03-16T07:02:16.852Z,999.33
2019-03-16T07:03:16.848Z,999.40
2019-03-16T07:04:16.860Z,999.38
2019-03-16T07:05:19.811Z,999.37
2019-03-16T07:06:17.820Z,999.37
2019-03-16T07:07:16.838Z,999.40
2019-03-16T07:08:16.790Z,999.48
2019-03-16T07:09:16.814Z,999.44
2019-03-16T07:10:16.888Z,999.45
2019-03-16T07:11:16.762Z,999.51
2019-03-16T07:12:16.744Z,999.49
2019-03-16T07:13:16.735Z,999.49
2019-03-16T07:14:16.741Z,999.56
2019-03-16T07:15:16.780Z,999.49
2019-03-16T07:16:16.701Z,999.53
2019-03-16T07:17:16.689Z,999.52
2019-03-16T07:18:16.698Z,999.53
2019-03-16T07:19:16.693Z,999.55
2019-03-16T07:20:16.655Z,999.61
2019-03-16T07:21:16.649Z,999.57
2019-03-16T07:22:16.634Z,999.57
2019-03-16T07:23:16.659Z,999.60
2019-03-16T07:24:16.628Z,999.64
2019-03-16T07:25:16.601Z,999.65
2019-03-16T07:26:16.591Z,999.64
2019-03-16T07:27:25.568Z,999.66
2019-03-16T07:28:17.571Z,999.67
2019-03-16T07:29:16.582Z,999.70
2019-03-16T07:30:16.543Z,999.76
2019-03-16T07:31:16.539Z,999.66
2019-03-16T07:32:16.534Z,999.71
2019-03-16T07:33:16.512Z,999.79
2019-03-16T07:34:16.519Z,999.68
2019-03-16T07:35:16.491Z,999.75
2019-03-16T07:36:16.473Z,999.75
2019-03-16T07:37:16.470Z,999.75
2019-03-16T07:38:16.454Z,999.73
2019-03-16T07:39:16.458Z,999.83
2019-03-16T07:40:16.436Z,999.80
2019-03-16T07:41:16.422Z,999.88
2019-03-16T07:42:16.410Z,999.82
2019-03-16T07:43:16.404Z,999.83
2019-03-16T07:44:16.416Z,999.87
2019-03-16T07:45:16.376Z,999.85
2019-03-16T07:46:16.372Z,999.90
2019-03-16T07:47:16.353Z,999.85
2019-03-16T07:48:16.343Z,999.93
2019-03-16T07:49:16.351Z,999.92
2019-03-16T07:50:16.318Z,1000.01
2019-03-16T07:51:16.346Z,1000.02
2019-03-16T07:52:16.295Z,999.99
2019-03-16T07:53:16.286Z,999.93
2019-03-16T07:54:16.294Z,999.96
2019-03-16T07:55:16.278Z,1000.02
2019-03-16T07:56:16.254Z,999.97
2019-03-16T07:57:16.246Z,999.93
2019-03-16T07:58:16.230Z,1000.00
2019-03-16T07:59:16.237Z,1000.01
2019-03-16T08:00:16.210Z,1000.05
2019-03-16T08:01:16.220Z,1000.09
2019-03-16T08:02:16.194Z,1000.08
2019-03-16T08:03:16.189Z,1000.05
2019-03-16T08:04:16.213Z,1000.06
2019-03-16T08:05:19.119Z,999.98
2019-03-16T08:06:16.146Z,1000.04
2019-03-16T08:07:16.127Z,1000.02
2019-03-16T08:08:16.124Z,1000.00
2019-03-16T08:09:16.169Z,1000.09
2019-03-16T08:10:16.120Z,1000.14
2019-03-16T08:11:16.092Z,1000.11
2019-03-16T08:12:16.081Z,1000.07
2019-03-16T08:13:16.081Z,1000.07
2019-03-16T08:14:16.059Z,1000.11
2019-03-16T08:15:16.063Z,1000.08
2019-03-16T08:16:16.045Z,1000.10
2019-03-16T08:17:16.033Z,1000.08
2019-03-16T08:18:16.015Z,1000.11
2019-03-16T08:19:16.014Z,1000.11
2019-03-16T08:20:16.009Z,1000.15
2019-03-16T08:21:16.012Z,1000.13
2019-03-16T08:22:15.982Z,1000.17
2019-03-16T08:23:15.967Z,1000.28
2019-03-16T08:24:15.945Z,1000.22
2019-03-16T08:25:15.964Z,1000.31
2019-03-16T08:26:15.922Z,1000.31
2019-03-16T08:27:15.918Z,1000.39
2019-03-16T08:28:15.903Z,1000.47
2019-03-16T08:29:15.898Z,1000.46
2019-03-16T08:30:15.904Z,1000.43
2019-03-16T08:31:15.873Z,1000.48
2019-03-16T08:32:15.858Z,1000.43
2019-03-16T08:33:15.854Z,1000.43
2019-03-16T08:34:15.836Z,1000.48
2019-03-16T08:35:15.862Z,1000.42
2019-03-16T08:36:15.842Z,1000.42
2019-03-16T08:37:15.831Z,1000.46
2019-03-16T08:38:15.852Z,1000.46
2019-03-16T08:39:15.783Z,1000.50
2019-03-16T08:40:15.826Z,1000.41
2019-03-16T08:41:15.770Z,1000.38
2019-03-16T08:42:15.749Z,1000.44
2019-03-16T08:43:15.744Z,1000.39
2019-03-16T08:44:15.748Z,1000.37
2019-03-16T08:45:15.809Z,1000.37
2019-03-16T08:46:15.771Z,1000.47
2019-03-16T08:47:15.736Z,1000.39
2019-03-16T08:48:22.679Z,1000.39
2019-03-16T08:49:16.691Z,1000.36
2019-03-16T08:50:15.755Z,1000.39
2019-03-16T08:51:15.687Z,1000.41
2019-03-16T08:52:15.691Z,1000.43
2019-03-16T08:53:15.657Z,1000.54
2019-03-16T08:54:15.666Z,1000.49
2019-03-16T08:55:15.683Z,1000.48
2019-03-16T08:56:15.626Z,1000.49
2019-03-16T08:57:15.658Z,1000.48
2019-03-16T08:58:15.589Z,1000.45
2019-03-16T08:59:15.558Z,1000.53
2019-03-16T09:00:15.569Z,1000.53
2019-03-16T09:01:15.541Z,1000.47
2019-03-16T09:02:15.526Z,1000.40
2019-03-16T09:03:15.603Z,1000.45
2019-03-16T09:04:15.507Z,1000.41
2019-03-16T09:05:15.513Z,1000.49
2019-03-16T09:06:15.484Z,1000.46
2019-03-16T09:07:15.477Z,1000.37
2019-03-16T09:08:15.485Z,1000.35
2019-03-16T09:09:15.466Z,1000.42
2019-03-16T09:10:15.473Z,1000.43
2019-03-16T09:11:15.430Z,1000.43
2019-03-16T09:12:15.420Z,1000.44
2019-03-16T09:13:15.402Z,1000.46
2019-03-16T09:14:15.397Z,1000.49
2019-03-16T09:15:15.405Z,1000.53
2019-03-16T09:16:15.369Z,1000.44
2019-03-16T09:17:15.362Z,1000.43
2019-03-16T09:18:15.353Z,1000.46
2019-03-16T09:19:15.343Z,1000.46
2019-03-16T09:20:15.375Z,1000.47
2019-03-16T09:21:15.326Z,1000.46
2019-03-16T09:22:15.305Z,1000.47
2019-03-16T09:23:15.294Z,1000.45
2019-03-16T09:24:15.293Z,1000.48
2019-03-16T09:25:15.300Z,1000.39
2019-03-16T09:26:15.291Z,1000.43
2019-03-16T09:27:15.254Z,1000.46
2019-03-16T09:28:18.801Z,1000.46
2019-03-16T09:29:15.550Z,1000.39
2019-03-16T09:30:15.239Z,1000.48
2019-03-16T09:31:15.207Z,1000.54
2019-03-16T09:32:15.198Z,1000.51
2019-03-16T09:33:15.259Z,1000.58
2019-03-16T09:34:15.175Z,1000.56
2019-03-16T09:35:15.195Z,1000.50
2019-03-16T09:36:15.176Z,1000.51
2019-03-16T09:37:15.152Z,1000.56
2019-03-16T09:38:15.127Z,1000.55
2019-03-16T09:39:15.117Z,1000.52
2019-03-16T09:40:15.139Z,1000.59
2019-03-16T09:41:15.118Z,1000.72
2019-03-16T09:42:15.095Z,1000.67
2019-03-16T09:43:15.078Z,1000.62
2019-03-16T09:44:15.077Z,1000.57
2019-03-16T09:45:15.063Z,1000.56
2019-03-16T09:46:15.069Z,1000.59
2019-03-16T09:47:15.036Z,1000.63
2019-03-16T09:48:15.033Z,1000.57
2019-03-16T09:49:15.005Z,1000.61
2019-03-16T09:50:14.999Z,1000.62
2019-03-16T09:51:15.006Z,1000.62
2019-03-16T09:52:14.981Z,1000.66
2019-03-16T09:53:14.985Z,1000.72
2019-03-16T09:54:14.960Z,1000.61
2019-03-16T09:55:14.944Z,1000.58
2019-03-16T09:56:14.953Z,1000.62
2019-03-16T09:57:14.922Z,1000.65
2019-03-16T09:58:14.905Z,1000.67
2019-03-16T09:59:14.900Z,1000.62
2019-03-16T10:00:14.907Z,1000.64
2019-03-16T10:01:15.538Z,1000.60
2019-03-16T10:02:14.864Z,1000.59
2019-03-16T10:03:14.857Z,1000.60
2019-03-16T10:04:14.852Z,1000.61
2019-03-16T10:05:14.846Z,1000.66
2019-03-16T10:06:14.845Z,1000.63
2019-03-16T10:07:14.807Z,1000.66
2019-03-16T10:08:14.807Z,1000.66
2019-03-16T10:09:14.790Z,1000.72
2019-03-16T10:10:14.787Z,1000.69
2019-03-16T10:11:14.867Z,1000.71
2019-03-16T10:12:14.756Z,1000.68
2019-03-16T10:13:14.761Z,1000.66
2019-03-16T10:14:14.736Z,1000.70
2019-03-16T10:15:14.728Z,1000.59
2019-03-16T10:16:14.918Z,1000.61
2019-03-16T10:17:14.708Z,1000.59
2019-03-16T10:18:14.688Z,1000.62
2019-03-16T10:19:14.684Z,1000.63
2019-03-16T10:20:14.678Z,1000.62
2019-03-16T10:21:14.972Z,1000.57
2019-03-16T10:22:14.644Z,1000.58
2019-03-16T10:23:14.641Z,1000.57
2019-03-16T10:24:14.617Z,1000.60
2019-03-16T10:25:14.613Z,1000.56
2019-03-16T10:26:14.624Z,1000.52
2019-03-16T10:27:14.593Z,1000.54
2019-03-16T10:28:14.578Z,1000.56
2019-03-16T10:29:14.574Z,1000.58
2019-03-16T10:30:14.556Z,1000.51
2019-03-16T10:31:14.563Z,1000.47
2019-03-16T10:32:14.545Z,1000.54
2019-03-16T10:33:14.530Z,1000.47
2019-03-16T10:34:14.512Z,1000.55
2019-03-16T10:35:14.525Z,1000.55
2019-03-16T10:36:14.514Z,1000.52
2019-03-16T10:37:14.479Z,1000.56
2019-03-16T10:38:14.467Z,1000.58
2019-03-16T10:39:14.585Z,1000.58
2019-03-16T10:40:14.444Z,1000.55
2019-03-16T10:41:14.474Z,1000.50
2019-03-16T10:42:14.418Z,1000.53
2019-03-16T10:43:14.419Z,1000.50
2019-03-16T10:44:14.411Z,1000.60
2019-03-16T10:45:14.392Z,1000.54
2019-03-16T10:46:14.395Z,1000.56
2019-03-16T10:47:14.376Z,1000.62
2019-03-16T10:48:14.360Z,1000.59
2019-03-16T10:49:14.339Z,1000.67
2019-03-16T10:50:14.336Z,1000.64
2019-03-16T10:51:14.354Z,1000.64
2019-03-16T10:52:14.307Z,1000.64
2019-03-16T10:53:14.301Z,1000.65
2019-03-16T10:54:14.285Z,1000.72
2019-03-16T10:55:14.284Z,1000.73
2019-03-16T10:56:14.293Z,1000.79
2019-03-16T10:57:14.280Z,1000.70
2019-03-16T10:58:14.255Z,1000.80
2019-03-16T10:59:14.228Z,1000.73
2019-03-16T11:00:14.228Z,1000.75
2019-03-16T11:01:14.237Z,1000.78
2019-03-16T11:02:14.204Z,1000.79
2019-03-16T11:03:14.190Z,1000.77
2019-03-16T11:04:14.180Z,1000.77
2019-03-16T11:05:14.170Z,1000.76
2019-03-16T11:06:14.170Z,1000.72
2019-03-16T11:07:14.143Z,1000.71
2019-03-16T11:08:14.134Z,1000.73
2019-03-16T11:09:14.124Z,1000.68
2019-03-16T11:10:14.119Z,1000.69
2019-03-16T11:11:14.120Z,1000.68
2019-03-16T11:12:14.094Z,1000.68
2019-03-16T11:13:14.156Z,1000.70
2019-03-16T11:14:14.065Z,1000.62
2019-03-16T11:15:14.055Z,1000.60
2019-03-16T11:16:14.056Z,1000.60
2019-03-16T11:17:14.032Z,1000.59
2019-03-16T11:18:14.020Z,1000.61
2019-03-16T11:19:14.011Z,1000.62
2019-03-16T11:20:14.003Z,1000.60
2019-03-16T11:21:14.007Z,1000.53
2019-03-16T11:22:13.985Z,1000.57
2019-03-16T11:23:13.973Z,1000.48
2019-03-16T11:24:13.962Z,1000.51
2019-03-16T11:25:13.952Z,1000.51
2019-03-16T11:26:13.934Z,1000.46
2019-03-16T11:27:16.890Z,1000.44
2019-03-16T11:28:13.909Z,1000.44
2019-03-16T11:29:13.905Z,1000.51
2019-03-16T11:30:13.935Z,1000.45
2019-03-16T11:31:13.876Z,1000.45
2019-03-16T11:32:13.891Z,1000.46
2019-03-16T11:33:13.859Z,1000.50
2019-03-16T11:34:13.852Z,1000.50
2019-03-16T11:35:13.829Z,1000.46
2019-03-16T11:36:13.855Z,1000.49
2019-03-16T11:37:13.831Z,1000.53
2019-03-16T11:38:13.810Z,1000.51
2019-03-16T11:39:14.059Z,1000.56
2019-03-16T11:40:13.783Z,1000.53
2019-03-16T11:41:13.801Z,1000.49
2019-03-16T11:42:13.781Z,1000.46
2019-03-16T11:43:13.830Z,1000.50
2019-03-16T11:44:13.781Z,1000.53
2019-03-16T11:45:16.729Z,1000.51
2019-03-16T11:46:13.714Z,1000.54
2019-03-16T11:47:13.731Z,1000.53
2019-03-16T11:48:13.694Z,1000.54
2019-03-16T11:49:13.686Z,1000.52
2019-03-16T11:50:13.666Z,1000.58
2019-03-16T11:51:13.656Z,1000.59
2019-03-16T11:52:13.668Z,1000.63
2019-03-16T11:53:13.646Z,1000.59
2019-03-16T11:54:13.628Z,1000.56
2019-03-16T11:55:13.622Z,1000.59
2019-03-16T11:56:18.377Z,1000.58
2019-03-16T11:57:13.609Z,1000.64
2019-03-16T11:58:13.600Z,1000.59
2019-03-16T11:59:21.523Z,1000.62
2019-03-16T12:00:14.568Z,1000.60
2019-03-16T12:01:13.547Z,1000.63
2019-03-16T12:02:13.554Z,1000.62
2019-03-16T12:03:13.525Z,1000.67
2019-03-16T12:04:13.519Z,1000.61
2019-03-16T12:05:13.510Z,1000.61
2019-03-16T12:06:13.496Z,1000.57
2019-03-16T12:07:13.515Z,1000.58
2019-03-16T12:08:13.476Z,1000.59
2019-03-16T12:09:13.461Z,1000.62
2019-03-16T12:10:13.444Z,1000.62
2019-03-16T12:11:13.433Z,1000.63
2019-03-16T12:12:13.448Z,1000.68
2019-03-16T12:13:18.210Z,1000.72
2019-03-16T12:14:14.426Z,1000.73
2019-03-16T12:15:13.422Z,1000.76
2019-03-16T12:16:13.388Z,1000.69
2019-03-16T12:17:13.387Z,1000.70
2019-03-16T12:18:13.357Z,1000.72
2019-03-16T12:19:13.344Z,1000.71
2019-03-16T12:20:13.338Z,1000.70